Time;durP1;ratioP1;P1;durP2;ratioP2;P2;SDS_P1;SDS_P2;PMS_P1;PMS_P2;Temp;Humidity;BMP_temperature;BMP_pressure;BME280_temperature;BME280_humidity;BME280_pressure;Samples;Min_cycle;Max_cycle;Signal;HPM_P1;HPM_P2
2022/08/24 00:01:24;;;;;;;4.03;3.63;;;14.30;99.90;;;;;;5117923;28;20171;-82
2022/08/24 00:03:50;;;;;;;4.40;3.20;;;14.20;99.90;;;;;;5116768;28;20184;-83
2022/08/24 00:06:20;;;;;;;5.10;3.87;;;14.20;99.90;;;;;;5116505;28;20520;-83
2022/08/24 00:08:49;;;;;;;4.83;3.70;;;14.10;99.90;;;;;;5115845;28;20755;-84
2022/08/24 00:11:15;;;;;;;7.63;4.33;;;14.10;99.90;;;;;;5115578;28;20186;-83
2022/08/24 00:13:41;;;;;;;4.77;4.07;;;14.00;99.90;;;;;;5117215;28;20256;-84
2022/08/24 00:16:08;;;;;;;7.10;3.90;;;13.90;99.90;;;;;;5115280;28;20210;-84
2022/08/24 00:18:34;;;;;;;4.30;3.90;;;13.90;99.90;;;;;;5115610;28;20628;-83
2022/08/24 00:21:00;;;;;;;7.77;4.00;;;13.90;99.90;;;;;;5116991;28;20172;-83
2022/08/24 00:23:27;;;;;;;6.33;3.60;;;13.90;99.90;;;;;;5116701;28;20175;-82
2022/08/24 00:25:53;;;;;;;4.33;3.93;;;13.80;99.90;;;;;;5115883;28;20202;-83
2022/08/24 00:28:18;;;;;;;4.87;4.17;;;13.80;99.90;;;;;;5116867;28;20561;-84
2022/08/24 00:30:44;;;;;;;5.50;4.07;;;13.70;99.90;;;;;;5117199;28;20209;-82
2022/08/24 00:33:10;;;;;;;7.60;4.23;;;13.70;99.90;;;;;;5117481;28;20195;-81
2022/08/24 00:35:35;;;;;;;5.10;4.20;;;13.70;99.90;;;;;;5119271;28;20854;-82
2022/08/24 00:38:01;;;;;;;5.97;4.40;;;13.60;99.90;;;;;;5121339;28;20190;-82
2022/08/24 00:40:33;;;;;;;4.43;3.80;;;13.60;99.90;;;;;;5121175;28;20207;-82
2022/08/24 00:43:03;;;;;;;5.67;3.80;;;13.60;99.90;;;;;;5118701;28;20668;-83
2022/08/24 00:45:46;;;;;;;4.00;3.60;;;13.60;99.90;;;;;;5118881;28;20179;-82
2022/08/24 00:48:20;;;;;;;4.43;3.17;;;13.60;99.90;;;;;;5118030;28;20307;-83
2022/08/24 00:50:59;;;;;;;4.90;4.13;;;13.60;99.90;;;;;;5118532;28;20578;-83
2022/08/24 00:53:37;;;;;;;4.80;3.67;;;13.70;99.90;;;;;;5119950;28;20163;-84
2022/08/24 00:56:07;;;;;;;4.87;3.90;;;13.60;99.90;;;;;;5119585;28;20212;-83
2022/08/24 00:58:47;;;;;;;6.00;4.10;;;13.70;99.90;;;;;;5121373;28;20282;-83
2022/08/24 01:01:13;;;;;;;4.23;3.70;;;13.70;99.90;;;;;;5118333;28;20640;-82
2022/08/24 01:03:41;;;;;;;4.47;3.70;;;13.70;99.90;;;;;;5116565;28;20180;-83
2022/08/24 01:06:07;;;;;;;4.03;3.50;;;13.70;99.90;;;;;;5116579;28;20176;-82
2022/08/24 01:08:34;;;;;;;7.90;3.77;;;13.60;99.90;;;;;;5117338;28;20207;-82
2022/08/24 01:11:14;;;;;;;5.77;3.77;;;13.60;99.90;;;;;;5117371;28;20228;-82
2022/08/24 01:13:43;;;;;;;6.57;4.00;;;13.60;99.90;;;;;;5116878;28;20655;-82
2022/08/24 01:16:11;;;;;;;6.63;3.87;;;13.60;99.90;;;;;;5118988;28;20172;-83
2022/08/24 01:18:50;;;;;;;4.90;3.77;;;13.60;99.90;;;;;;5117897;28;20195;-84
2022/08/24 01:21:28;;;;;;;3.90;3.53;;;13.60;99.90;;;;;;5117964;28;20179;-82
2022/08/24 01:23:59;;;;;;;5.70;4.27;;;13.50;99.90;;;;;;5118949;28;20280;-85
2022/08/24 01:26:35;;;;;;;4.73;4.13;;;13.50;99.90;;;;;;5117389;28;20181;-83
2022/08/24 01:29:13;;;;;;;4.27;3.87;;;13.50;99.90;;;;;;5116233;28;20656;-82
2022/08/24 01:31:39;;;;;;;4.80;3.90;;;13.40;99.90;;;;;;5118363;28;20221;-83
2022/08/24 01:34:05;;;;;;;7.77;4.03;;;13.40;99.90;;;;;;5118316;28;20171;-83
2022/08/24 01:36:37;;;;;;;7.83;4.07;;;13.30;99.90;;;;;;5117968;28;20178;-82
2022/08/24 01:39:20;;;;;;;4.63;4.13;;;13.40;99.90;;;;;;5117542;28;20551;-81
2022/08/24 01:41:46;;;;;;;5.17;3.93;;;13.30;99.90;;;;;;5116572;28;20265;-81
2022/08/24 01:44:12;;;;;;;4.60;4.13;;;13.20;99.90;;;;;;5116211;28;20184;-83
2022/08/24 01:46:43;;;;;;;5.23;4.50;;;13.20;99.90;;;;;;5116761;28;20172;-82
2022/08/24 01:49:09;;;;;;;4.30;3.87;;;13.20;99.90;;;;;;5116606;28;20294;-82
2022/08/24 01:51:35;;;;;;;5.23;4.17;;;13.10;99.90;;;;;;5118310;28;20297;-82
2022/08/24 01:54:02;;;;;;;6.13;4.13;;;13.10;99.90;;;;;;5118314;28;20175;-82
2022/08/24 01:56:29;;;;;;;4.53;4.13;;;13.00;99.90;;;;;;5117110;28;20579;-82
2022/08/24 01:58:56;;;;;;;6.97;4.17;;;13.00;99.90;;;;;;5116445;28;20633;-81
2022/08/24 02:01:22;;;;;;;6.53;4.50;;;13.00;99.90;;;;;;5116220;28;20274;-82
2022/08/24 02:03:47;;;;;;;8.20;4.43;;;12.90;99.90;;;;;;5116123;28;20179;-83
2022/08/24 02:06:13;;;;;;;4.83;4.37;;;12.90;99.90;;;;;;5118353;28;20629;-82
2022/08/24 02:08:39;;;;;;;5.87;4.20;;;12.80;99.90;;;;;;5116826;28;20211;-81
2022/08/24 02:11:07;;;;;;;5.40;4.73;;;12.80;99.90;;;;;;5116735;28;20175;-84
2022/08/24 02:13:34;;;;;;;5.60;3.83;;;12.80;99.90;;;;;;5117333;28;20160;-84
2022/08/24 02:16:00;;;;;;;5.83;4.40;;;12.80;99.90;;;;;;5117198;28;20171;-82
2022/08/24 02:18:26;;;;;;;4.57;3.80;;;12.80;99.90;;;;;;5116323;28;20263;-82
2022/08/24 02:20:52;;;;;;;4.73;4.30;;;12.80;99.90;;;;;;5116471;28;20599;-84
2022/08/24 02:23:19;;;;;;;5.17;4.57;;;12.80;99.90;;;;;;5116627;28;20183;-83
2022/08/24 02:25:45;;;;;;;5.60;4.37;;;12.80;99.90;;;;;;5116205;28;20182;-82
2022/08/24 02:28:12;;;;;;;4.43;4.03;;;12.70;99.90;;;;;;5116761;28;20203;-83
2022/08/24 02:30:39;;;;;;;6.90;4.43;;;12.70;99.90;;;;;;5116672;28;20543;-83
2022/08/24 02:33:06;;;;;;;4.20;3.80;;;12.70;99.90;;;;;;5117100;28;20262;-83
2022/08/24 02:35:31;;;;;;;4.57;3.77;;;12.70;99.90;;;;;;5116826;28;20172;-84
2022/08/24 02:37:58;;;;;;;4.63;4.17;;;;;;;;;;5116849;28;20186;-83
2022/08/24 02:40:24;;;;;;;7.07;4.10;;;12.70;99.90;;;;;;5117704;28;20172;-84
2022/08/24 02:42:50;;;;;;;6.67;3.97;;;12.70;99.90;;;;;;5117044;28;20175;-82
2022/08/24 02:45:15;;;;;;;4.90;4.30;;;12.70;99.90;;;;;;5116776;28;20649;-83
2022/08/24 02:47:41;;;;;;;9.87;4.77;;;12.70;99.90;;;;;;5115548;28;20604;-84
2022/08/24 02:50:11;;;;;;;5.37;4.87;;;12.70;99.90;;;;;;5116871;28;20187;-82
2022/08/24 02:52:41;;;;;;;4.00;3.70;;;12.70;99.90;;;;;;5115335;28;20174;-82
2022/08/24 02:55:11;;;;;;;6.03;4.30;;;12.70;99.90;;;;;;5116296;28;20224;-82
2022/08/24 02:57:37;;;;;;;4.93;3.90;;;12.70;99.90;;;;;;5116831;28;20183;-82
2022/08/24 03:00:08;;;;;;;5.43;4.03;;;12.70;99.90;;;;;;5115537;28;20606;-82
2022/08/24 03:02:33;;;;;;;4.83;4.40;;;12.70;99.90;;;;;;5115840;28;20272;-82
2022/08/24 03:04:59;;;;;;;4.60;3.80;;;12.60;99.90;;;;;;5117672;28;20203;-81
2022/08/24 03:07:25;;;;;;;5.70;4.00;;;12.60;99.90;;;;;;5117832;28;20195;-81
2022/08/24 03:09:50;;;;;;;4.13;3.53;;;12.50;99.90;;;;;;5116599;28;20703;-81
2022/08/24 03:12:17;;;;;;;6.03;4.30;;;12.50;99.90;;;;;;5116539;28;20228;-82
2022/08/24 03:14:42;;;;;;;7.30;4.23;;;12.50;99.90;;;;;;5116026;28;20227;-83
2022/08/24 03:17:09;;;;;;;6.07;4.00;;;12.50;99.90;;;;;;5115687;28;20585;-82
2022/08/24 03:19:35;;;;;;;4.53;4.13;;;12.40;99.90;;;;;;5115292;28;20204;-83
2022/08/24 03:22:01;;;;;;;4.77;4.07;;;12.40;99.90;;;;;;5117108;28;20170;-83
2022/08/24 03:24:27;;;;;;;5.27;4.13;;;12.40;99.90;;;;;;5116568;28;20178;-83
2022/08/24 03:26:52;;;;;;;6.83;4.10;;;12.40;99.90;;;;;;5115621;28;20180;-83
2022/08/24 03:29:18;;;;;;;5.07;4.23;;;12.40;99.90;;;;;;5116596;28;20195;-84
2022/08/24 03:31:44;;;;;;;3.93;3.53;;;12.40;99.90;;;;;;5116898;28;20235;-83
2022/08/24 03:34:13;;;;;;;5.63;4.20;;;12.30;99.90;;;;;;5116295;28;20228;-82
2022/08/24 03:36:45;;;;;;;7.07;3.93;;;12.30;99.90;;;;;;5115293;28;20542;-82
2022/08/24 03:39:13;;;;;;;6.20;3.90;;;12.30;99.90;;;;;;5116342;28;20598;-83
2022/08/24 03:41:39;;;;;;;7.10;4.13;;;12.30;99.90;;;;;;5116181;28;20175;-82
2022/08/24 03:44:04;;;;;;;6.80;4.17;;;12.20;99.90;;;;;;5116498;28;20202;-81
2022/08/24 03:46:35;;;;;;;5.43;4.17;;;12.10;99.90;;;;;;5116652;28;20175;-82
2022/08/24 03:49:03;;;;;;;5.23;4.10;;;12.10;99.90;;;;;;5115990;28;20616;-81
2022/08/24 03:51:29;;;;;;;5.33;4.10;;;12.20;99.90;;;;;;5114648;28;20175;-83
2022/08/24 03:53:56;;;;;;;4.47;4.07;;;12.20;99.90;;;;;;5116487;28;20168;-82
2022/08/24 03:56:22;;;;;;;5.50;4.10;;;12.10;99.90;;;;;;5114901;28;20199;-82
2022/08/24 03:58:48;;;;;;;5.23;4.13;;;12.10;99.90;;;;;;5115055;28;20606;-82
2022/08/24 04:01:16;;;;;;;4.33;3.93;;;12.10;99.90;;;;;;5114801;28;20236;-82
2022/08/24 04:03:43;;;;;;;4.50;3.67;;;12.20;99.90;;;;;;5114997;28;20187;-83
2022/08/24 04:06:11;;;;;;;4.37;3.73;;;12.20;99.90;;;;;;5115120;28;20194;-83
2022/08/24 04:08:37;;;;;;;9.10;3.80;;;12.20;99.90;;;;;;5120055;28;20203;-82
2022/08/24 04:11:03;;;;;;;7.93;4.17;;;12.20;99.90;;;;;;5120588;28;20171;-83
2022/08/24 04:13:30;;;;;;;5.27;3.67;;;12.20;99.90;;;;;;5120194;28;20254;-82
2022/08/24 04:16:02;;;;;;;5.27;4.03;;;12.10;99.90;;;;;;5119189;28;20171;-83
2022/08/24 04:18:28;;;;;;;4.43;3.83;;;12.10;99.90;;;;;;5119808;27;20206;-82
2022/08/24 04:20:54;;;;;;;4.70;4.30;;;12.10;99.90;;;;;;5119280;28;20180;-83
2022/08/24 04:23:19;;;;;;;5.23;4.67;;;12.00;99.90;;;;;;5120939;28;20214;-83
2022/08/24 04:25:47;;;;;;;4.47;3.83;;;12.00;99.90;;;;;;5123106;28;20666;-83
2022/08/24 04:28:17;;;;;;;4.33;3.90;;;12.00;99.90;;;;;;5124041;28;20268;-83
2022/08/24 04:30:44;;;;;;;5.93;3.97;;;12.00;99.90;;;;;;5125437;28;20693;-82
2022/08/24 04:33:12;;;;;;;5.97;3.70;;;12.00;99.90;;;;;;5126413;28;20641;-83
2022/08/24 04:35:40;;;;;;;5.47;3.83;;;12.00;99.90;;;;;;5126074;28;20258;-83
2022/08/24 04:38:07;;;;;;;6.67;4.40;;;12.00;99.90;;;;;;5121039;28;20203;-83
2022/08/24 04:40:33;;;;;;;4.33;3.93;;;12.00;99.90;;;;;;5118949;28;20183;-84
2022/08/24 04:43:00;;;;;;;5.47;4.37;;;12.00;99.90;;;;;;5117749;28;20566;-82
2022/08/24 04:45:27;;;;;;;4.80;4.07;;;12.10;99.90;;;;;;5117393;28;20202;-82
2022/08/24 04:47:53;;;;;;;7.37;4.00;;;12.10;99.90;;;;;;5117047;28;20211;-81
2022/08/24 04:50:19;;;;;;;4.80;3.87;;;12.10;99.90;;;;;;5116959;28;20696;-80
2022/08/24 04:52:45;;;;;;;5.43;4.10;;;12.10;99.90;;;;;;5117897;28;20624;-81
2022/08/24 04:55:11;;;;;;;5.93;3.90;;;12.10;99.90;;;;;;5117958;28;20198;-83
2022/08/24 04:57:37;;;;;;;4.53;4.13;;;12.20;99.90;;;;;;5117875;28;20201;-81
2022/08/24 05:00:05;;;;;;;4.60;4.07;;;12.10;99.90;;;;;;5117903;28;20240;-83
2022/08/24 05:02:30;;;;;;;8.50;4.23;;;12.20;99.90;;;;;;5119288;28;20218;-83
2022/08/24 05:04:57;;;;;;;4.27;3.63;;;12.20;99.90;;;;;;5119611;28;20179;-83
2022/08/24 05:07:23;;;;;;;5.57;4.23;;;12.30;99.90;;;;;;5119026;28;20213;-82
2022/08/24 05:09:49;;;;;;;4.00;3.60;;;12.30;99.90;;;;;;5117832;28;20333;-83
2022/08/24 05:12:15;;;;;;;3.80;3.50;;;12.30;99.90;;;;;;5119679;28;20203;-82
2022/08/24 05:14:41;;;;;;;9.23;3.73;;;12.40;99.90;;;;;;5119371;28;20259;-83
2022/08/24 05:17:07;;;;;;;4.13;3.60;;;12.40;99.90;;;;;;5117954;28;20176;-83
2022/08/24 05:19:32;;;;;;;3.90;3.50;;;12.40;99.90;;;;;;5118846;28;20275;-82
2022/08/24 05:21:58;;;;;;;8.93;3.97;;;12.50;99.90;;;;;;5118520;28;20203;-83
2022/08/24 05:24:24;;;;;;;5.77;4.87;;;12.60;99.90;;;;;;5118986;28;20241;-83
2022/08/24 05:26:51;;;;;;;6.07;3.20;;;12.70;99.90;;;;;;5119129;28;20179;-82
2022/08/24 05:29:17;;;;;;;6.20;3.63;;;12.80;99.90;;;;;;5118364;27;20260;-83
2022/08/24 05:31:44;;;;;;;4.70;3.40;;;12.80;99.90;;;;;;5117396;28;20270;-82
2022/08/24 05:34:11;;;;;;;5.37;3.30;;;12.90;99.90;;;;;;5117271;28;20182;-81
2022/08/24 05:36:38;;;;;;;5.83;3.30;;;13.00;99.90;;;;;;5117283;28;20183;-81
2022/08/24 05:39:07;;;;;;;8.77;2.87;;;13.10;99.90;;;;;;5116165;28;20206;-82
2022/08/24 05:41:33;;;;;;;4.40;3.30;;;13.10;99.90;;;;;;5117852;28;20176;-80
2022/08/24 05:43:59;;;;;;;5.00;2.90;;;13.20;99.90;;;;;;5118421;27;20179;-81
2022/08/24 05:46:26;;;;;;;10.03;3.30;;;13.30;99.90;;;;;;5116694;28;20191;-82
2022/08/24 05:48:52;;;;;;;4.23;3.10;;;13.40;99.90;;;;;;5116606;28;20298;-81
2022/08/24 05:51:18;;;;;;;5.23;3.07;;;13.50;99.90;;;;;;5116957;28;20259;-81
2022/08/24 05:53:44;;;;;;;5.43;3.27;;;13.60;99.90;;;;;;5118856;28;20587;-83
2022/08/24 05:56:12;;;;;;;7.47;3.80;;;13.70;99.90;;;;;;5116841;28;20195;-82
2022/08/24 05:58:39;;;;;;;7.67;3.93;;;13.90;99.90;;;;;;5118062;28;20203;-82
2022/08/24 06:01:07;;;;;;;7.70;3.73;;;13.80;99.90;;;;;;5117056;28;20175;-83
2022/08/24 06:03:33;;;;;;;7.47;3.97;;;13.90;99.90;;;;;;5119084;28;20176;-81
2022/08/24 06:06:02;;;;;;;6.17;3.67;;;14.00;99.90;;;;;;5116964;28;20183;-81
2022/08/24 06:08:28;;;;;;;6.90;3.63;;;14.10;99.90;;;;;;5117943;28;20203;-82
2022/08/24 06:10:54;;;;;;;10.27;4.03;;;14.10;99.90;;;;;;5116929;28;20183;-83
2022/08/24 06:13:20;;;;;;;7.00;3.73;;;14.20;99.90;;;;;;5118078;28;20183;-82
2022/08/24 06:15:47;;;;;;;5.87;3.77;;;14.30;99.90;;;;;;5117790;28;20249;-82
2022/08/24 06:18:12;;;;;;;5.83;3.20;;;14.40;99.90;;;;;;5117765;28;20628;-81
2022/08/24 06:20:41;;;;;;;3.53;2.93;;;14.50;99.90;;;;;;5118192;28;20210;-81
2022/08/24 06:23:07;;;;;;;4.60;2.60;;;14.50;99.90;;;;;;5117367;28;20186;-82
2022/08/24 06:28:21;;;;;;;4.53;2.30;;;14.60;99.90;;;;;;5117996;28;20692;-82
2022/08/24 06:30:46;;;;;;;2.50;2.30;;;14.70;99.90;;;;;;5117410;28;20180;-82
2022/08/24 06:33:12;;;;;;;3.53;2.47;;;14.80;99.90;;;;;;5116523;28;20184;-82
2022/08/24 06:35:38;;;;;;;3.87;2.67;;;14.80;99.90;;;;;;5117810;28;20176;-81
2022/08/24 06:38:04;;;;;;;4.03;2.53;;;14.90;99.90;;;;;;5117067;28;20232;-81
2022/08/24 06:40:29;;;;;;;5.40;2.40;;;14.90;99.90;;;;;;5117540;28;20176;-81
2022/08/24 06:42:59;;;;;;;3.60;2.50;;;14.90;99.90;;;;;;5118125;28;20183;-81
2022/08/24 06:45:25;;;;;;;4.50;2.77;;;14.90;99.90;;;;;;5116861;28;20178;-84
2022/08/24 06:47:51;;;;;;;4.30;2.23;;;15.20;99.90;;;;;;5116195;28;20204;-82
2022/08/24 06:50:17;;;;;;;4.77;2.50;;;15.10;99.90;;;;;;5115817;28;20178;-81
2022/08/24 06:52:43;;;;;;;5.70;2.30;;;;;;;;;;5117365;28;20236;-81
2022/08/24 06:55:09;;;;;;;4.30;2.60;;;15.40;99.90;;;;;;5115029;28;20227;-82
2022/08/24 06:57:35;;;;;;;2.40;2.20;;;15.40;99.90;;;;;;5116307;28;20257;-82
2022/08/24 07:00:03;;;;;;;3.57;2.43;;;15.50;99.90;;;;;;5116760;28;20699;-82
2022/08/24 07:02:29;;;;;;;3.27;2.30;;;15.70;99.90;;;;;;5115821;28;20219;-81
2022/08/24 07:04:55;;;;;;;4.33;2.67;;;15.70;99.90;;;;;;5116988;28;20200;-82
2022/08/24 07:07:22;;;;;;;3.23;2.73;;;15.80;99.90;;;;;;5116898;28;20200;-81
2022/08/24 07:09:47;;;;;;;3.90;2.80;;;15.90;99.90;;;;;;5115531;28;20291;-82
2022/08/24 07:12:13;;;;;;;4.27;2.17;;;16.00;99.90;;;;;;5115628;28;20212;-82
2022/08/24 07:14:39;;;;;;;8.53;2.77;;;16.20;99.90;;;;;;5115610;28;20184;-82
2022/08/24 07:17:04;;;;;;;7.37;2.50;;;16.30;99.90;;;;;;5116686;28;20631;-81
2022/08/24 07:19:30;;;;;;;2.90;2.40;;;16.50;99.90;;;;;;5115041;28;20253;-81
2022/08/24 07:21:57;;;;;;;3.23;2.00;;;16.60;99.90;;;;;;5116966;28;20236;-82
2022/08/24 07:24:24;;;;;;;4.50;2.40;;;16.60;99.90;;;;;;5115288;28;20651;-81
2022/08/24 07:26:51;;;;;;;3.63;2.23;;;16.70;99.90;;;;;;5115927;28;20176;-81
2022/08/24 07:29:18;;;;;;;3.83;2.57;;;16.80;99.90;;;;;;5115539;28;20681;-81
2022/08/24 07:31:44;;;;;;;4.20;2.30;;;16.90;99.90;;;;;;5115859;28;20277;-82
2022/08/24 07:34:11;;;;;;;3.17;2.30;;;17.10;99.90;;;;;;5118752;28;20525;-81
2022/08/24 07:36:39;;;;;;;6.40;2.37;;;17.20;99.90;;;;;;5117591;28;20173;-83
2022/08/24 07:39:06;;;;;;;4.10;2.07;;;17.50;99.90;;;;;;5115812;28;20206;-82
2022/08/24 07:41:38;;;;;;;4.97;2.20;;;17.60;99.90;;;;;;5118020;28;20179;-83
2022/08/24 07:44:04;;;;;;;3.30;2.30;;;17.80;99.90;;;;;;5121469;28;20172;-83
2022/08/24 07:46:30;;;;;;;2.33;2.00;;;18.00;99.90;;;;;;5122182;28;20654;-81
2022/08/24 07:48:56;;;;;;;4.83;2.30;;;18.40;99.90;;;;;;5121616;28;20207;-81
2022/08/24 07:51:22;;;;;;;3.83;2.67;;;18.50;99.90;;;;;;5122790;28;20183;-80
2022/08/24 07:53:48;;;;;;;2.30;2.10;;;18.70;99.90;;;;;;5121436;28;20175;-83
2022/08/24 07:56:14;;;;;;;5.43;2.43;;;18.90;99.90;;;;;;5123168;28;20185;-83
2022/08/24 07:58:40;;;;;;;2.87;2.20;;;19.20;99.90;;;;;;5122989;28;20266;-84
2022/08/24 08:01:07;;;;;;;2.53;2.13;;;19.30;99.90;;;;;;5124911;28;20174;-81
2022/08/24 08:03:33;;;;;;;3.50;2.47;;;19.40;99.90;;;;;;5124074;28;20186;-83
2022/08/24 08:06:01;;;;;;;5.03;2.40;;;19.60;99.90;;;;;;5126487;27;20172;-80
2022/08/24 08:08:28;;;;;;;5.60;2.40;;;20.10;99.90;;;;;;5123726;28;20200;-80
2022/08/24 08:10:54;;;;;;;3.20;2.20;;;20.10;99.90;;;;;;5118054;28;20190;-81
2022/08/24 08:13:20;;;;;;;3.40;2.10;;;;;;;;;;5119336;28;20172;-82
2022/08/24 08:15:46;;;;;;;5.73;2.20;;;20.60;99.90;;;;;;5119106;28;20217;-79
2022/08/24 08:18:12;;;;;;;7.70;2.37;;;20.80;99.90;;;;;;5118920;28;20203;-81
2022/08/24 08:20:39;;;;;;;4.57;1.87;;;20.80;99.90;;;;;;5120332;28;20640;-83
2022/08/24 08:25:51;;;;;;;3.77;2.23;;;21.30;99.90;;;;;;5121428;28;20179;-80
2022/08/24 08:28:18;;;;;;;2.77;1.83;;;21.50;99.90;;;;;;5120081;28;20207;-81
2022/08/24 08:30:44;;;;;;;3.30;2.13;;;21.60;99.90;;;;;;5120371;28;20175;-82
2022/08/24 08:33:11;;;;;;;3.20;2.07;;;21.80;99.90;;;;;;5120066;28;20176;-82
2022/08/24 08:35:37;;;;;;;5.17;1.93;;;22.00;99.90;;;;;;5119835;28;20176;-82
2022/08/24 08:38:04;;;;;;;2.23;1.80;;;22.60;99.90;;;;;;5117786;28;20188;-81
2022/08/24 08:40:56;;;;;;;2.90;2.00;;;22.40;99.90;;;;;;5120040;28;20186;-83
2022/08/24 08:43:43;;;;;;;4.10;2.10;;;22.70;99.90;;;;;;5118487;28;20173;-81
2022/08/24 08:46:50;;;;;;;2.13;1.77;;;22.80;99.90;;;;;;5118577;28;20179;-81
2022/08/24 08:49:33;;;;;;;3.67;1.80;;;23.10;99.90;;;;;;5117660;28;20583;-82
2022/08/24 08:52:05;;;;;;;2.47;2.03;;;23.20;99.90;;;;;;5118943;28;20180;-82
2022/08/24 08:54:30;;;;;;;2.00;1.80;;;23.30;99.90;;;;;;5117902;28;20172;-80
2022/08/24 08:57:19;;;;;;;6.97;1.90;;;23.40;99.90;;;;;;5118602;28;20195;-82
2022/08/24 09:00:15;;;;;;;3.33;2.33;;;23.70;99.90;;;;;;5120139;28;20202;-81
2022/08/24 09:02:56;;;;;;;4.47;1.97;;;24.00;99.90;;;;;;5120568;27;20172;-83
2022/08/24 09:05:52;;;;;;;5.70;1.57;;;24.30;99.90;;;;;;5119451;28;20175;-80
2022/08/24 09:08:48;;;;;;;3.33;1.70;;;24.70;99.90;;;;;;5120887;28;20203;-82
2022/08/24 09:11:23;;;;;;;3.13;1.90;;;24.70;99.90;;;;;;5118643;28;20666;-82
2022/08/24 09:14:18;;;;;;;8.23;2.10;;;24.90;99.90;;;;;;5119953;28;20168;-82
2022/08/24 09:17:17;;;;;;;4.53;1.90;;;24.90;99.90;;;;;;5120004;28;20518;-82
2022/08/24 09:20:11;;;;;;;2.87;2.10;;;25.20;99.90;;;;;;5120124;28;20191;-81
2022/08/24 09:22:40;;;;;;;3.10;1.93;;;25.40;99.90;;;;;;5119054;28;20545;-80
2022/08/24 09:25:19;;;;;;;3.47;1.70;;;25.50;99.90;;;;;;5125483;28;20173;-80
2022/08/24 09:28:02;;;;;;;2.17;1.70;;;25.70;99.90;;;;;;5123418;28;20199;-82
2022/08/24 09:30:56;;;;;;;3.73;1.60;;;25.70;99.90;;;;;;5123797;28;20176;-84
2022/08/24 09:33:34;;;;;;;2.70;1.90;;;26.10;99.90;;;;;;5121879;28;20175;-83
2022/08/24 09:36:00;;;;;;;3.53;1.80;;;26.10;99.90;;;;;;5121461;28;20164;-82
2022/08/24 09:39:00;;;;;;;5.77;2.07;;;26.30;99.90;;;;;;5122164;28;20560;-84
2022/08/24 09:41:51;;;;;;;6.60;2.07;;;26.30;99.90;;;;;;5092808;28;20267;-83
2022/08/24 09:44:35;;;;;;;2.60;1.80;;;26.50;99.90;;;;;;5119695;28;20172;-83
2022/08/24 09:47:22;;;;;;;4.97;2.03;;;26.70;99.90;;;;;;5119793;28;20176;-82
2022/08/24 09:49:48;;;;;;;2.37;1.70;;;26.80;99.90;;;;;;5120558;28;20216;-82
2022/08/24 09:52:34;;;;;;;4.63;1.93;;;26.80;99.90;;;;;;5119210;28;20634;-83
2022/08/24 09:55:21;;;;;;;2.90;1.80;;;26.80;99.90;;;;;;5121306;28;20266;-82
2022/08/24 09:58:17;;;;;;;3.03;1.70;;;27.10;99.90;;;;;;5119228;28;20657;-83
2022/08/24 10:01:04;;;;;;;5.70;1.90;;;27.10;99.90;;;;;;5119019;28;20183;-83
2022/08/24 10:03:47;;;;;;;3.23;1.37;;;27.30;99.90;;;;;;5120768;28;20206;-82
2022/08/24 10:06:22;;;;;;;1.70;1.60;;;27.40;99.90;;;;;;5120567;28;20186;-82
2022/08/24 10:09:15;;;;;;;3.37;2.00;;;27.60;99.90;;;;;;5119104;28;20695;-83
2022/08/24 10:11:53;;;;;;;3.13;2.00;;;27.50;99.90;;;;;;5120786;28;20196;-82
2022/08/24 10:14:30;;;;;;;7.57;1.87;;;27.60;99.90;;;;;;5120707;28;20250;-84
2022/08/24 10:17:18;;;;;;;3.67;2.00;;;27.60;99.90;;;;;;5119997;28;20170;-84
2022/08/24 10:20:16;;;;;;;2.03;1.80;;;27.70;99.90;;;;;;5119169;28;20202;-82
2022/08/24 10:22:56;;;;;;;6.13;1.73;;;27.90;99.90;;;;;;5120813;28;20177;-83
2022/08/24 10:25:28;;;;;;;6.13;1.70;;;28.00;99.90;;;;;;5120678;28;20195;-84
2022/08/24 10:28:15;;;;;;;3.50;1.77;;;28.00;99.90;;;;;;5120748;28;20285;-82
2022/08/24 10:31:03;;;;;;;1.97;1.47;;;28.00;98.80;;;;;;5121430;28;20166;-82
2022/08/24 10:34:09;;;;;;;1.37;1.20;;;28.00;99.90;;;;;;5120856;28;20172;-83
2022/08/24 10:36:53;;;;;;;1.40;1.30;;;28.10;98.90;;;;;;5104670;28;20191;-83
2022/08/24 10:39:50;;;;;;;2.33;1.60;;;28.40;99.80;;;;;;5120639;28;20188;-83
2022/08/24 10:45:40;;;;;;;2.00;1.43;;;28.60;98.60;;;;;;5121393;28;20714;-82
2022/08/24 10:48:21;;;;;;;4.57;1.60;;;28.80;95.50;;;;;;5119984;28;20194;-82
2022/08/24 10:51:10;;;;;;;4.03;1.43;;;28.80;99.10;;;;;;5120360;28;20171;-82
2022/08/24 10:53:36;;;;;;;2.23;1.10;;;29.00;97.60;;;;;;5119935;28;20182;-83
2022/08/24 10:56:12;;;;;;;2.03;1.40;;;29.20;95.00;;;;;;5117803;28;20552;-83
2022/08/24 10:58:44;;;;;;;2.23;1.57;;;29.50;91.50;;;;;;5119161;28;20553;-83
2022/08/24 11:01:34;;;;;;;1.53;1.40;;;29.40;93.80;;;;;;5119221;27;20237;-82
2022/08/24 11:04:03;;;;;;;3.10;1.60;;;29.40;95.00;;;;;;5119712;28;20267;-83
2022/08/24 11:06:36;;;;;;;2.87;1.70;;;29.60;95.80;;;;;;5120694;28;20170;-82
2022/08/24 11:09:16;;;;;;;3.00;1.70;;;29.70;90.90;;;;;;5119697;28;20623;-83
2022/08/24 11:11:48;;;;;;;2.03;1.40;;;29.80;95.30;;;;;;5119322;28;20192;-82
2022/08/24 11:14:28;;;;;;;1.50;1.40;;;29.50;91.80;;;;;;5119899;28;20228;-82
2022/08/24 11:17:20;;;;;;;1.83;1.50;;;29.20;92.40;;;;;;5119551;28;20170;-83
2022/08/24 11:19:47;;;;;;;2.93;1.60;;;29.50;93.30;;;;;;5120187;28;20188;-81
2022/08/24 11:22:39;;;;;;;2.40;1.63;;;29.70;90.60;;;;;;5120057;28;20253;-83
2022/08/24 11:25:21;;;;;;;2.67;1.43;;;30.00;91.20;;;;;;5123487;28;20164;-82
2022/08/24 11:27:56;;;;;;;1.60;1.33;;;30.00;92.50;;;;;;5116860;28;20700;-83
2022/08/24 11:30:28;;;;;;;2.00;1.40;;;30.00;93.00;;;;;;5119004;28;20225;-83
2022/08/24 11:32:55;;;;;;;3.07;1.57;;;30.20;92.40;;;;;;5117941;28;20552;-82
2022/08/24 11:35:23;;;;;;;1.77;1.27;;;30.30;92.00;;;;;;5120804;28;20230;-82
2022/08/24 11:37:55;;;;;;;1.77;1.40;;;30.20;91.40;;;;;;5119076;28;20183;-81
2022/08/24 11:40:26;;;;;;;1.70;1.60;;;30.20;92.00;;;;;;5119071;28;20179;-83
2022/08/24 11:43:15;;;;;;;1.83;1.50;;;30.40;88.20;;;;;;5118037;28;20169;-82
2022/08/24 11:45:43;;;;;;;1.87;1.30;;;30.70;83.90;;;;;;5119068;28;20262;-83
2022/08/24 11:48:35;;;;;;;2.87;1.43;;;30.70;88.10;;;;;;5118577;28;20300;-83
2022/08/24 11:51:12;;;;;;;3.10;1.13;;;30.70;87.10;;;;;;5120657;28;20204;-82
2022/08/24 11:53:57;;;;;;;1.70;1.33;;;30.80;91.60;;;;;;5123723;28;20175;-83
2022/08/24 11:56:49;;;;;;;2.07;1.10;;;30.80;85.10;;;;;;5121783;28;20195;-83
2022/08/24 11:59:44;;;;;;;3.10;1.20;;;30.80;81.60;;;;;;5117525;28;20192;-81
2022/08/24 12:02:17;;;;;;;1.30;1.20;;;31.00;86.70;;;;;;5118741;28;20561;-83
2022/08/24 12:04:58;;;;;;;2.33;1.50;;;31.00;87.60;;;;;;5118927;28;20586;-84
2022/08/24 12:07:36;;;;;;;1.57;1.40;;;31.00;78.80;;;;;;5117452;28;20652;-83
2022/08/24 12:10:29;;;;;;;1.70;1.23;;;31.10;84.80;;;;;;5119010;28;20195;-83
2022/08/24 12:13:22;;;;;;;1.20;1.10;;;30.90;85.90;;;;;;5117617;28;20174;-84
2022/08/24 12:16:19;;;;;;;2.00;1.27;;;31.00;90.40;;;;;;5117009;28;20177;-83
2022/08/24 12:19:04;;;;;;;2.20;1.33;;;31.10;82.00;;;;;;5117287;28;20268;-82
2022/08/24 12:21:32;;;;;;;1.73;1.20;;;31.00;87.80;;;;;;5118215;28;20208;-83
2022/08/24 12:24:03;;;;;;;2.57;1.37;;;31.20;80.40;;;;;;5119413;28;20638;-83
2022/08/24 12:26:44;;;;;;;2.50;1.40;;;31.30;91.30;;;;;;5118749;28;20179;-83
2022/08/24 12:29:36;;;;;;;2.27;1.40;;;31.20;88.30;;;;;;5122044;28;20261;-83
2022/08/24 12:32:21;;;;;;;1.87;1.27;;;31.30;83.10;;;;;;5123688;28;20186;-83
2022/08/24 12:35:05;;;;;;;1.70;1.30;;;31.40;83.90;;;;;;5121210;28;20206;-82
2022/08/24 12:37:46;;;;;;;2.80;1.30;;;31.50;87.30;;;;;;5121506;28;20183;-83
2022/08/24 12:40:59;;;;;;;2.40;1.60;;;31.20;88.00;;;;;;5121926;28;20270;-83
2022/08/24 12:43:43;;;;;;;1.73;1.37;;;31.20;84.10;;;;;;5100548;28;20189;-83
2022/08/24 12:46:13;;;;;;;1.70;1.50;;;31.20;83.50;;;;;;5123765;28;20177;-84
2022/08/24 12:49:01;;;;;;;1.80;1.20;;;31.30;82.00;;;;;;5123336;28;20196;-85
2022/08/24 12:52:04;;;;;;;1.87;1.57;;;31.30;82.70;;;;;;5123062;28;20174;-82
2022/08/24 12:54:45;;;;;;;4.33;1.40;;;31.40;81.30;;;;;;5124188;28;20176;-83
2022/08/24 12:57:50;;;;;;;3.70;1.50;;;31.40;85.50;;;;;;5122189;28;20174;-82
2022/08/24 13:00:21;;;;;;;2.07;1.40;;;31.80;86.70;;;;;;5124118;28;20171;-85
2022/08/24 13:03:02;;;;;;;4.60;1.50;;;32.00;89.80;;;;;;5121696;28;20216;-84
2022/08/24 13:05:47;;;;;;;3.90;1.60;;;32.00;90.30;;;;;;5123359;28;20173;-83
2022/08/24 13:08:30;;;;;;;1.70;1.50;;;31.90;82.50;;;;;;5121240;28;20217;-83
2022/08/24 13:11:07;;;;;;;1.70;1.60;;;31.90;81.70;;;;;;5123264;27;20173;-84
2022/08/24 13:14:03;;;;;;;1.73;1.60;;;31.90;76.20;;;;;;5122411;28;20168;-83
2022/08/24 13:16:50;;;;;;;1.70;1.60;;;31.80;88.00;;;;;;5121632;28;20179;-84
2022/08/24 13:19:22;;;;;;;4.53;1.70;;;31.90;85.60;;;;;;5123339;28;20651;-84
2022/08/24 13:22:19;;;;;;;1.70;1.60;;;31.90;86.20;;;;;;5123387;27;20178;-83
2022/08/24 13:24:46;;;;;;;1.90;1.77;;;31.80;80.10;;;;;;5116120;28;20295;-83